Greenbrier, Arkansas
Current Conditions -  °F | °C
As of 10:58 PM on Thursday 27 Nov 2014 (Local Time) from KLRF Reporting Station
Haze Haze  
Wind Chill: -2°   Ceiling: Unl
Heat Index: -2°   Visibility: 5mi
Dew Point: -4°   Wind: 0mph
Humidity: 89%   Direction: NA
Pressure: 30.44"   Gusts: NA
Location:  35.23°N, 92.39°W
Report Text: KLRF 280458Z AUTO 00000KT 5SM BR CLR M02/M04 A3044 RMK AO2 SLP313 T10201036 $
Loading
Personal Weather Stations






























Interactive Weather Map New forecast layout! Learn more

10-Day Weather Forecast

Advertisements
Track Severe Weather on mobile